PWSweather.com
Personal Weather Stations
Station Observations
KNYSYRAC2
Fairmount Hills, Fairmount, NY 13219

Fairmount HillsFairmount, NY 13219

Lat: 43.03602, Lon: -76.247151

Elevation: 663

Station Type: Ambient Weather WS-2080

http://weather.cerchia.com

High Low Average
Temperature 59.4°F15.2°C 42.0°F5.6°C 53.3°F11.8°C
Dew Point 53.3°F11.8°C 36.9°F2.7°C 46.9°F8.3°C
Winds 6.2 mph 10.0 kmh Calm Calm 4.0 mph SSE6.4 kmh SSE
Wind Gusts 10.7 mph17.2 kmh -- 6.0 mph9.7 kmh
Humidity 86% 72% 79%
Pressure 30.26 in1024.7 mb 29.98 in1015.2 mb -
Precipitation 0.00 in0.0 mm - -
Hour Temp Dew Point Humidity Winds Wind Gusts Pressure Precip Precip Rate Daily Precip Total
12:00 AM 53.3°F11.8°C 45.6°F7.6°C 75% 2.8 mph SSW4.5 kmh SSW 3.8 mph6.1 kmh 29.98 in1015.2 mb 0.00 in0.0 mm 0.00 in/hr0.0 mm/hr 0.00 in0.0 mm
12:15 AM 53.0°F11.7°C 45.3°F7.4°C 75% 2.0 mph SSE3.2 kmh SSE 3.1 mph5.0 kmh 29.98 in1015.2 mb 0.00 in0.0 mm 0.00 in/hr0.0 mm/hr 0.00 in0.0 mm
12:30 AM 52.8°F11.6°C 45.4°F7.4°C 76% 2.3 mph S3.7 kmh S 5.4 mph8.7 kmh 29.98 in1015.2 mb 0.00 in0.0 mm 0.00 in/hr0.0 mm/hr 0.00 in0.0 mm
12:45 AM 52.8°F11.6°C 45.8°F7.7°C 77% 2.3 mph SE3.7 kmh SE 3.1 mph5.0 kmh 29.99 in1015.6 mb 0.00 in0.0 mm 0.00 in/hr0.0 mm/hr 0.00 in0.0 mm
01:00 AM 52.8°F11.6°C 46.1°F7.8°C 78% 2.7 mph SE4.3 kmh SE 4.5 mph7.2 kmh 29.99 in1015.6 mb 0.00 in0.0 mm 0.00 in/hr0.0 mm/hr 0.00 in0.0 mm
01:15 AM 52.6°F11.4°C 45.9°F7.7°C 78% 2.8 mph SE4.5 kmh SE 6.0 mph9.7 kmh 29.99 in1015.6 mb 0.00 in0.0 mm 0.00 in/hr0.0 mm/hr 0.00 in0.0 mm
01:30 AM 52.2°F11.2°C 45.9°F7.7°C 79% 2.4 mph SE3.9 kmh SE 3.1 mph5.0 kmh 29.99 in1015.6 mb 0.00 in0.0 mm 0.00 in/hr0.0 mm/hr 0.00 in0.0 mm
01:45 AM 52.1°F11.2°C 46.1°F7.8°C 80% 2.4 mph SE3.9 kmh SE 3.1 mph5.0 kmh 29.99 in1015.6 mb 0.00 in0.0 mm 0.00 in/hr0.0 mm/hr 0.00 in0.0 mm
02:00 AM 51.9°F11.1°C 45.9°F7.7°C 80% 2.5 mph SE4.0 kmh SE 5.4 mph8.7 kmh 29.99 in1015.6 mb 0.00 in0.0 mm 0.00 in/hr0.0 mm/hr 0.00 in0.0 mm
02:15 AM 51.7°F10.9°C 46.1°F7.8°C 81% 2.3 mph SSE3.7 kmh SSE 3.1 mph5.0 kmh 29.98 in1015.2 mb 0.00 in0.0 mm 0.00 in/hr0.0 mm/hr 0.00 in0.0 mm
02:30 AM 51.7°F10.9°C 46.1°F7.8°C 81% 2.3 mph SSE3.7 kmh SSE 2.2 mph3.5 kmh 29.99 in1015.6 mb 0.00 in0.0 mm 0.00 in/hr0.0 mm/hr 0.00 in0.0 mm
02:45 AM 51.7°F10.9°C 46.4°F8.0°C 82% 2.2 mph SE3.5 kmh SE 3.1 mph5.0 kmh 29.98 in1015.2 mb 0.00 in0.0 mm 0.00 in/hr0.0 mm/hr 0.00 in0.0 mm
03:00 AM 51.7°F10.9°C 46.4°F8.0°C 82% 2.9 mph SSE4.7 kmh SSE 4.5 mph7.2 kmh 29.98 in1015.2 mb 0.00 in0.0 mm 0.00 in/hr0.0 mm/hr 0.00 in0.0 mm
03:15 AM 52.6°F11.4°C 46.9°F8.3°C 81% 3.7 mph SE6.0 kmh SE 6.9 mph11.1 kmh 29.98 in1015.2 mb 0.00 in0.0 mm 0.00 in/hr0.0 mm/hr 0.00 in0.0 mm
03:30 AM 53.5°F11.9°C 47.5°F8.6°C 80% 4.9 mph S7.9 kmh S 10.7 mph17.2 kmh 29.98 in1015.2 mb 0.00 in0.0 mm 0.00 in/hr0.0 mm/hr 0.00 in0.0 mm
03:45 AM 54.0°F12.2°C 47.7°F8.7°C 79% 5.0 mph S8.0 kmh S 8.3 mph13.4 kmh 29.98 in1015.2 mb 0.00 in0.0 mm 0.00 in/hr0.0 mm/hr 0.00 in0.0 mm
04:00 AM 54.6°F12.6°C 47.9°F8.8°C 78% 4.5 mph SSE7.2 kmh SSE 6.0 mph9.7 kmh 29.98 in1015.2 mb 0.00 in0.0 mm 0.00 in/hr0.0 mm/hr 0.00 in0.0 mm
04:15 AM 54.6°F12.6°C 47.5°F8.6°C 77% 4.6 mph S7.4 kmh S 6.9 mph11.1 kmh 29.98 in1015.2 mb 0.00 in0.0 mm 0.00 in/hr0.0 mm/hr 0.00 in0.0 mm
04:30 AM 54.6°F12.6°C 47.2°F8.4°C 76% 5.5 mph SW8.9 kmh SW 7.6 mph12.2 kmh 29.98 in1015.2 mb 0.00 in0.0 mm 0.00 in/hr0.0 mm/hr 0.00 in0.0 mm
04:45 AM 54.4°F12.4°C 47.0°F8.3°C 76% 4.7 mph SSW7.6 kmh SSW 8.3 mph13.4 kmh 29.98 in1015.2 mb 0.00 in0.0 mm 0.00 in/hr0.0 mm/hr 0.00 in0.0 mm
05:00 AM 54.2°F12.3°C 47.5°F8.6°C 78% 6.0 mph S9.7 kmh S 7.6 mph12.2 kmh 29.99 in1015.6 mb 0.00 in0.0 mm 0.00 in/hr0.0 mm/hr 0.00 in0.0 mm
05:15 AM 54.4°F12.4°C 47.3°F8.5°C 77% 5.4 mph SSW8.7 kmh SSW 6.9 mph11.1 kmh 29.99 in1015.6 mb 0.00 in0.0 mm 0.00 in/hr0.0 mm/hr 0.00 in0.0 mm
05:30 AM 54.0°F12.2°C 47.3°F8.5°C 78% 3.6 mph SSW5.8 kmh SSW 6.0 mph9.7 kmh 29.99 in1015.6 mb 0.00 in0.0 mm 0.00 in/hr0.0 mm/hr 0.00 in0.0 mm
05:45 AM 54.0°F12.2°C 47.3°F8.5°C 78% 4.6 mph S7.4 kmh S 6.9 mph11.1 kmh 29.99 in1015.6 mb 0.00 in0.0 mm 0.00 in/hr0.0 mm/hr 0.00 in0.0 mm
06:00 AM 53.9°F12.2°C 47.5°F8.6°C 79% 2.8 mph SW4.5 kmh SW 4.5 mph7.2 kmh 30.00 in1015.9 mb 0.00 in0.0 mm 0.00 in/hr0.0 mm/hr 0.00 in0.0 mm
06:15 AM 53.5°F11.9°C 47.5°F8.6°C 80% 4.9 mph SW7.9 kmh SW 6.9 mph11.1 kmh 30.00 in1015.9 mb 0.00 in0.0 mm 0.00 in/hr0.0 mm/hr 0.00 in0.0 mm
06:30 AM 53.3°F11.8°C 47.3°F8.5°C 80% 5.5 mph S8.9 kmh S 8.3 mph13.4 kmh 30.00 in1015.9 mb 0.00 in0.0 mm 0.00 in/hr0.0 mm/hr 0.00 in0.0 mm
06:45 AM 53.3°F11.8°C 47.6°F8.7°C 81% 5.1 mph SW8.2 kmh SW 7.6 mph12.2 kmh 30.01 in1016.3 mb 0.00 in0.0 mm 0.00 in/hr0.0 mm/hr 0.00 in0.0 mm
07:00 AM 53.1°F11.7°C 47.5°F8.6°C 81% 4.6 mph SSW7.4 kmh SSW 6.9 mph11.1 kmh 30.02 in1016.6 mb 0.00 in0.0 mm 0.00 in/hr0.0 mm/hr 0.00 in0.0 mm
07:15 AM 53.3°F11.8°C 47.6°F8.7°C 81% 4.6 mph SW7.4 kmh SW 5.4 mph8.7 kmh 30.03 in1016.9 mb 0.00 in0.0 mm 0.00 in/hr0.0 mm/hr 0.00 in0.0 mm
07:30 AM 53.7°F12.1°C 48.3°F9.1°C 82% 3.2 mph SSW5.1 kmh SSW 5.4 mph8.7 kmh 30.03 in1016.9 mb 0.00 in0.0 mm 0.00 in/hr0.0 mm/hr 0.00 in0.0 mm
07:45 AM 53.7°F12.1°C 48.3°F9.1°C 82% 5.0 mph SSW8.0 kmh SSW 6.0 mph9.7 kmh 30.03 in1016.9 mb 0.00 in0.0 mm 0.00 in/hr0.0 mm/hr 0.00 in0.0 mm
08:00 AM 54.0°F12.2°C 48.7°F9.3°C 82% 3.8 mph SW6.1 kmh SW 6.9 mph11.1 kmh 30.03 in1016.9 mb 0.00 in0.0 mm 0.00 in/hr0.0 mm/hr 0.00 in0.0 mm
08:15 AM 54.6°F12.6°C 49.5°F9.7°C 83% 3.6 mph SW5.8 kmh SW 5.4 mph8.7 kmh 30.04 in1017.3 mb 0.00 in0.0 mm 0.00 in/hr0.0 mm/hr 0.00 in0.0 mm
08:30 AM 54.9°F12.7°C 49.9°F9.9°C 83% 3.2 mph SW5.1 kmh SW 4.5 mph7.2 kmh 30.04 in1017.3 mb 0.00 in0.0 mm 0.00 in/hr0.0 mm/hr 0.00 in0.0 mm
08:45 AM 55.7°F13.2°C 50.6°F10.3°C 83% 2.8 mph SW4.5 kmh SW 3.8 mph6.1 kmh 30.04 in1017.3 mb 0.00 in0.0 mm 0.00 in/hr0.0 mm/hr 0.00 in0.0 mm
09:00 AM 56.2°F13.4°C 50.8°F10.4°C 82% 3.3 mph SSW5.3 kmh SSW 5.4 mph8.7 kmh 30.04 in1017.3 mb 0.00 in0.0 mm 0.00 in/hr0.0 mm/hr 0.00 in0.0 mm
09:15 AM 56.9°F13.8°C 51.5°F10.8°C 82% 5.0 mph WSW8.0 kmh WSW 6.9 mph11.1 kmh 30.05 in1017.6 mb 0.00 in0.0 mm 0.00 in/hr0.0 mm/hr 0.00 in0.0 mm
09:30 AM 57.5°F14.2°C 52.0°F11.1°C 82% 4.6 mph WSW7.4 kmh WSW 6.0 mph9.7 kmh 30.05 in1017.6 mb 0.00 in0.0 mm 0.00 in/hr0.0 mm/hr 0.00 in0.0 mm
09:45 AM 58.4°F14.7°C 52.6°F11.4°C 81% 2.9 mph N4.7 kmh N 3.8 mph6.1 kmh 30.06 in1017.9 mb 0.00 in0.0 mm 0.00 in/hr0.0 mm/hr 0.00 in0.0 mm
10:00 AM 58.4°F14.7°C 52.2°F11.2°C 80% 3.2 mph NW5.1 kmh NW 5.4 mph8.7 kmh 30.06 in1017.9 mb 0.00 in0.0 mm 0.00 in/hr0.0 mm/hr 0.00 in0.0 mm
10:15 AM 58.7°F14.8°C 52.6°F11.4°C 80% 3.6 mph NNW5.8 kmh NNW 5.4 mph8.7 kmh 30.06 in1017.9 mb 0.00 in0.0 mm 0.00 in/hr0.0 mm/hr 0.00 in0.0 mm
10:30 AM 59.4°F15.2°C 53.3°F11.8°C 80% 3.7 mph N6.0 kmh N 6.0 mph9.7 kmh 30.07 in1018.3 mb 0.00 in0.0 mm 0.00 in/hr0.0 mm/hr 0.00 in0.0 mm
10:45 AM 59.1°F15.1°C 52.9°F11.6°C 80% 3.9 mph NNW6.3 kmh NNW 6.9 mph11.1 kmh 30.07 in1018.3 mb 0.00 in0.0 mm 0.00 in/hr0.0 mm/hr 0.00 in0.0 mm
11:00 AM 58.4°F14.7°C 52.2°F11.2°C 80% 3.8 mph N6.1 kmh N 4.5 mph7.2 kmh 30.07 in1018.3 mb 0.00 in0.0 mm 0.00 in/hr0.0 mm/hr 0.00 in0.0 mm
11:15 AM 57.3°F14.1°C 51.8°F11.0°C 82% 4.3 mph NE6.9 kmh NE 6.0 mph9.7 kmh 30.07 in1018.3 mb 0.00 in0.0 mm 0.00 in/hr0.0 mm/hr 0.00 in0.0 mm
11:30 AM 56.7°F13.7°C 51.6°F10.9°C 83% 6.2 mph NNE10.0 kmh NNE 8.3 mph13.4 kmh 30.08 in1018.6 mb 0.00 in0.0 mm 0.00 in/hr0.0 mm/hr 0.00 in0.0 mm
11:45 AM 55.8°F13.2°C 51.4°F10.8°C 85% 3.9 mph N6.3 kmh N 5.4 mph8.7 kmh 30.08 in1018.6 mb 0.00 in0.0 mm 0.00 in/hr0.0 mm/hr 0.00 in0.0 mm
12:00 PM 55.5°F13.1°C 51.4°F10.8°C 86% 3.4 mph N5.5 kmh N 6.0 mph9.7 kmh 30.08 in1018.6 mb 0.00 in0.0 mm 0.00 in/hr0.0 mm/hr 0.00 in0.0 mm
12:15 PM 55.7°F13.2°C 51.5°F10.8°C 86% 4.3 mph N6.9 kmh N 6.9 mph11.1 kmh 30.08 in1018.6 mb 0.00 in0.0 mm 0.00 in/hr0.0 mm/hr 0.00 in0.0 mm
12:30 PM 55.8°F13.2°C 51.7°F10.9°C 86% 4.8 mph NNE7.7 kmh NNE 6.0 mph9.7 kmh 30.08 in1018.6 mb 0.00 in0.0 mm 0.00 in/hr0.0 mm/hr 0.00 in0.0 mm
12:45 PM 56.9°F13.8°C 52.1°F11.2°C 84% 3.8 mph NW6.1 kmh NW 5.4 mph8.7 kmh 30.09 in1019.0 mb 0.00 in0.0 mm 0.00 in/hr0.0 mm/hr 0.00 in0.0 mm
01:00 PM 57.5°F14.2°C 52.0°F11.1°C 82% 4.3 mph NNE6.9 kmh NNE 5.4 mph8.7 kmh 30.09 in1019.0 mb 0.00 in0.0 mm 0.00 in/hr0.0 mm/hr 0.00 in0.0 mm
01:15 PM 57.5°F14.2°C 51.7°F10.9°C 81% 4.8 mph W7.7 kmh W 9.2 mph14.8 kmh 30.10 in1019.3 mb 0.00 in0.0 mm 0.00 in/hr0.0 mm/hr 0.00 in0.0 mm
01:30 PM 57.3°F14.1°C 51.2°F10.7°C 80% 5.0 mph N8.0 kmh N 6.0 mph9.7 kmh 30.10 in1019.3 mb 0.00 in0.0 mm 0.00 in/hr0.0 mm/hr 0.00 in0.0 mm
01:45 PM 57.5°F14.2°C 51.0°F10.6°C 79% 5.7 mph N9.2 kmh N 8.3 mph13.4 kmh 30.10 in1019.3 mb 0.00 in0.0 mm 0.00 in/hr0.0 mm/hr 0.00 in0.0 mm
02:00 PM 57.8°F14.3°C 50.7°F10.4°C 77% 4.5 mph N7.2 kmh N 8.3 mph13.4 kmh 30.10 in1019.3 mb 0.00 in0.0 mm 0.00 in/hr0.0 mm/hr 0.00 in0.0 mm
02:15 PM 57.8°F14.3°C 50.7°F10.4°C 77% 4.2 mph N6.8 kmh N 7.6 mph12.2 kmh 30.10 in1019.3 mb 0.00 in0.0 mm 0.00 in/hr0.0 mm/hr 0.00 in0.0 mm
02:30 PM 58.2°F14.6°C 50.3°F10.2°C 75% 4.8 mph N7.7 kmh N 6.0 mph9.7 kmh 30.10 in1019.3 mb 0.00 in0.0 mm 0.00 in/hr0.0 mm/hr 0.00 in0.0 mm
02:45 PM 58.5°F14.7°C 50.3°F10.2°C 74% 5.9 mph N9.5 kmh N 8.3 mph13.4 kmh 30.10 in1019.3 mb 0.00 in0.0 mm 0.00 in/hr0.0 mm/hr 0.00 in0.0 mm
03:00 PM 58.5°F14.7°C 49.9°F9.9°C 73% 5.0 mph N8.0 kmh N 8.3 mph13.4 kmh 30.10 in1019.3 mb 0.00 in0.0 mm 0.00 in/hr0.0 mm/hr 0.00 in0.0 mm
03:15 PM 58.4°F14.7°C 49.4°F9.7°C 72% 5.8 mph NW9.3 kmh NW 10.7 mph17.2 kmh 30.10 in1019.3 mb 0.00 in0.0 mm 0.00 in/hr0.0 mm/hr 0.00 in0.0 mm
03:30 PM 58.0°F14.4°C 49.4°F9.7°C 73% 4.9 mph NW7.9 kmh NW 6.0 mph9.7 kmh 30.10 in1019.3 mb 0.00 in0.0 mm 0.00 in/hr0.0 mm/hr 0.00 in0.0 mm
03:45 PM 57.6°F14.2°C 49.4°F9.7°C 74% 4.7 mph WSW7.6 kmh WSW 6.9 mph11.1 kmh 30.11 in1019.6 mb 0.00 in0.0 mm 0.00 in/hr0.0 mm/hr 0.00 in0.0 mm
04:00 PM 57.5°F14.2°C 49.2°F9.6°C 74% 4.7 mph NNW7.6 kmh NNW 6.9 mph11.1 kmh 30.11 in1019.6 mb 0.00 in0.0 mm 0.00 in/hr0.0 mm/hr 0.00 in0.0 mm
04:15 PM 56.9°F13.8°C 49.4°F9.7°C 76% 5.4 mph N8.7 kmh N 6.9 mph11.1 kmh 30.11 in1019.6 mb 0.00 in0.0 mm 0.00 in/hr0.0 mm/hr 0.00 in0.0 mm
04:30 PM 56.6°F13.7°C 48.7°F9.3°C 75% 4.9 mph NNE7.9 kmh NNE 9.2 mph14.8 kmh 30.12 in1020.0 mb 0.00 in0.0 mm 0.00 in/hr0.0 mm/hr 0.00 in0.0 mm
04:45 PM 56.0°F13.3°C 48.2°F9.0°C 75% 4.7 mph NE7.6 kmh NE 6.9 mph11.1 kmh 30.12 in1020.0 mb 0.00 in0.0 mm 0.00 in/hr0.0 mm/hr 0.00 in0.0 mm
05:00 PM 55.5°F13.1°C 47.7°F8.7°C 75% 5.5 mph NNW8.9 kmh NNW 6.9 mph11.1 kmh 30.13 in1020.3 mb 0.00 in0.0 mm 0.00 in/hr0.0 mm/hr 0.00 in0.0 mm
05:15 PM 54.8°F12.7°C 47.0°F8.3°C 75% 5.4 mph N8.7 kmh N 8.3 mph13.4 kmh 30.13 in1020.3 mb 0.00 in0.0 mm 0.00 in/hr0.0 mm/hr 0.00 in0.0 mm
05:30 PM 54.6°F12.6°C 47.2°F8.4°C 76% 3.6 mph N5.8 kmh N 4.5 mph7.2 kmh 30.13 in1020.3 mb 0.00 in0.0 mm 0.00 in/hr0.0 mm/hr 0.00 in0.0 mm
05:45 PM 54.2°F12.3°C 46.8°F8.2°C 76% 3.7 mph NNW6.0 kmh NNW 5.4 mph8.7 kmh 30.14 in1020.7 mb 0.00 in0.0 mm 0.00 in/hr0.0 mm/hr 0.00 in0.0 mm
06:00 PM 54.0°F12.2°C 46.7°F8.2°C 76% 3.3 mph N5.3 kmh N 4.5 mph7.2 kmh 30.14 in1020.7 mb 0.00 in0.0 mm 0.00 in/hr0.0 mm/hr 0.00 in0.0 mm
06:15 PM 53.9°F12.2°C 45.8°F7.7°C 74% 5.4 mph NNE8.7 kmh NNE 7.6 mph12.2 kmh 30.14 in1020.7 mb 0.00 in0.0 mm 0.00 in/hr0.0 mm/hr 0.00 in0.0 mm
06:30 PM 53.3°F11.8°C 44.9°F7.2°C 73% 5.7 mph N9.2 kmh N 10.7 mph17.2 kmh 30.15 in1021.0 mb 0.00 in0.0 mm 0.00 in/hr0.0 mm/hr 0.00 in0.0 mm
06:45 PM 52.6°F11.4°C 44.2°F6.8°C 73% 4.0 mph N6.4 kmh N 6.9 mph11.1 kmh 30.15 in1021.0 mb 0.00 in0.0 mm 0.00 in/hr0.0 mm/hr 0.00 in0.0 mm
07:00 PM 52.1°F11.2°C 44.4°F6.9°C 75% 3.5 mph NW5.6 kmh NW 6.0 mph9.7 kmh 30.16 in1021.3 mb 0.00 in0.0 mm 0.00 in/hr0.0 mm/hr 0.00 in0.0 mm
07:15 PM 51.3°F10.7°C 44.4°F6.9°C 77% 1.2 mph NNW1.9 kmh NNW 3.1 mph5.0 kmh 30.16 in1021.3 mb 0.00 in0.0 mm 0.00 in/hr0.0 mm/hr 0.00 in0.0 mm
07:30 PM 50.4°F10.2°C 44.2°F6.8°C 79% 1.2 mph WSW1.9 kmh WSW 3.1 mph5.0 kmh 30.17 in1021.7 mb 0.00 in0.0 mm 0.00 in/hr0.0 mm/hr 0.00 in0.0 mm
07:45 PM 49.7°F9.8°C 43.8°F6.6°C 80% 0.3 mph NW0.5 kmh NW 0.7 mph1.1 kmh 30.17 in1021.7 mb 0.00 in0.0 mm 0.00 in/hr0.0 mm/hr 0.00 in0.0 mm
08:00 PM 49.2°F9.6°C 43.6°F6.4°C 81% 0.8 mph W1.3 kmh W 1.6 mph2.6 kmh 30.18 in1022.0 mb 0.00 in0.0 mm 0.00 in/hr0.0 mm/hr 0.00 in0.0 mm
08:15 PM 48.8°F9.3°C 43.6°F6.4°C 82% 1.7 mph SW2.7 kmh SW 2.2 mph3.5 kmh 30.18 in1022.0 mb 0.00 in0.0 mm 0.00 in/hr0.0 mm/hr 0.00 in0.0 mm
08:30 PM 48.5°F9.2°C 43.5°F6.4°C 83% 2.3 mph SSW3.7 kmh SSW 3.1 mph5.0 kmh 30.19 in1022.4 mb 0.00 in0.0 mm 0.00 in/hr0.0 mm/hr 0.00 in0.0 mm
08:45 PM 48.3°F9.1°C 43.7°F6.5°C 84% 2.1 mph SW3.4 kmh SW 3.1 mph5.0 kmh 30.19 in1022.4 mb 0.00 in0.0 mm 0.00 in/hr0.0 mm/hr 0.00 in0.0 mm
09:00 PM 48.3°F9.1°C 43.7°F6.5°C 84% 1.6 mph NW2.6 kmh NW 2.2 mph3.5 kmh 30.21 in1023.0 mb 0.00 in0.0 mm 0.00 in/hr0.0 mm/hr 0.00 in0.0 mm
09:15 PM 48.5°F9.2°C 43.5°F6.4°C 83% 1.9 mph NNW3.1 kmh NNW 3.8 mph6.1 kmh 30.21 in1023.0 mb 0.00 in0.0 mm 0.00 in/hr0.0 mm/hr 0.00 in0.0 mm
09:30 PM 48.6°F9.2°C 43.1°F6.2°C 81% 2.0 mph N3.2 kmh N 3.8 mph6.1 kmh 30.21 in1023.0 mb 0.00 in0.0 mm 0.00 in/hr0.0 mm/hr 0.00 in0.0 mm
09:45 PM 48.3°F9.1°C 42.4°F5.8°C 80% 2.8 mph N4.5 kmh N 5.4 mph8.7 kmh 30.22 in1023.4 mb 0.00 in0.0 mm 0.00 in/hr0.0 mm/hr 0.00 in0.0 mm
10:00 PM 47.9°F8.8°C 41.1°F5.1°C 77% 2.2 mph N3.5 kmh N 5.4 mph8.7 kmh 30.22 in1023.4 mb 0.00 in0.0 mm 0.00 in/hr0.0 mm/hr 0.00 in0.0 mm
10:15 PM 47.4°F8.6°C 39.5°F4.2°C 74% 4.1 mph NNE6.6 kmh NNE 6.0 mph9.7 kmh 30.23 in1023.7 mb 0.00 in0.0 mm 0.00 in/hr0.0 mm/hr 0.00 in0.0 mm
10:30 PM 46.8°F8.2°C 39.0°F3.9°C 74% 3.0 mph NE4.8 kmh NE 5.4 mph8.7 kmh 30.23 in1023.7 mb 0.00 in0.0 mm 0.00 in/hr0.0 mm/hr 0.00 in0.0 mm
10:45 PM 46.3°F7.9°C 38.5°F3.6°C 74% 1.6 mph NE2.6 kmh NE 3.1 mph5.0 kmh 30.23 in1023.7 mb 0.00 in0.0 mm 0.00 in/hr0.0 mm/hr 0.00 in0.0 mm
11:00 PM 45.8°F7.7°C 38.0°F3.3°C 74% 2.4 mph NE3.9 kmh NE 5.4 mph8.7 kmh 30.23 in1023.7 mb 0.00 in0.0 mm 0.00 in/hr0.0 mm/hr 0.00 in0.0 mm
11:15 PM 45.2°F7.3°C 37.4°F3.0°C 74% 1.2 mph NNE1.9 kmh NNE 3.8 mph6.1 kmh 30.23 in1023.7 mb 0.00 in0.0 mm 0.00 in/hr0.0 mm/hr 0.00 in0.0 mm
11:30 PM 44.5°F6.9°C 37.4°F3.0°C 76% 1.0 mph NNE1.6 kmh NNE 3.1 mph5.0 kmh 30.24 in1024.0 mb 0.00 in0.0 mm 0.00 in/hr0.0 mm/hr 0.00 in0.0 mm
11:45 PM 44.3°F6.8°C 37.6°F3.1°C 77% 1.7 mph NE2.7 kmh NE 3.8 mph6.1 kmh 30.24 in1024.0 mb 0.00 in0.0 mm 0.00 in/hr0.0 mm/hr 0.00 in0.0 mm